createdAt,value
2018-04-14T00:00:28.416Z,972.07
2018-04-14T00:01:29.084Z,972.02
2018-04-14T00:02:29.756Z,972.04
2018-04-14T00:03:30.421Z,972.00
2018-04-14T00:04:31.090Z,971.98
2018-04-14T00:05:31.757Z,971.97
2018-04-14T00:06:32.424Z,972.02
2018-04-14T00:07:33.088Z,972.01
2018-04-14T00:08:33.758Z,972.03
2018-04-14T00:09:34.436Z,972.05
2018-04-14T00:10:35.104Z,972.03
2018-04-14T00:11:35.772Z,972.05
2018-04-14T00:12:36.438Z,972.05
2018-04-14T00:13:37.106Z,972.03
2018-04-14T00:14:37.774Z,972.05
2018-04-14T00:15:38.458Z,972.03
2018-04-14T00:16:39.122Z,972.01
2018-04-14T00:17:39.791Z,971.99
2018-04-14T00:18:40.467Z,972.01
2018-04-14T00:19:41.131Z,971.96
2018-04-14T00:20:41.801Z,971.99
2018-04-14T00:21:42.468Z,971.99
2018-04-14T00:22:43.135Z,971.97
2018-04-14T00:23:43.800Z,971.96
2018-04-14T00:24:44.469Z,972.01
2018-04-14T00:25:45.135Z,972.02
2018-04-14T00:26:45.812Z,972.00
2018-04-14T00:27:46.483Z,972.01
2018-04-14T00:28:47.151Z,972.01
2018-04-14T00:29:47.820Z,972.05
2018-04-14T00:30:48.484Z,972.03
2018-04-14T00:31:49.151Z,972.04
2018-04-14T00:32:49.820Z,972.08
2018-04-14T00:33:50.489Z,972.11
2018-04-14T00:34:51.155Z,972.06
2018-04-14T00:35:51.823Z,972.14
2018-04-14T00:36:52.492Z,972.11
2018-04-14T00:37:53.164Z,972.11
2018-04-14T00:38:53.828Z,972.11
2018-04-14T00:39:54.495Z,972.10
2018-04-14T00:40:55.167Z,972.17
2018-04-14T00:41:55.836Z,972.17
2018-04-14T00:42:56.498Z,972.19
2018-04-14T00:43:57.162Z,972.21
2018-04-14T00:44:57.831Z,972.14
2018-04-14T00:45:58.499Z,972.14
2018-04-14T00:46:59.167Z,972.14
2018-04-14T00:47:59.832Z,972.09
2018-04-14T00:49:00.504Z,972.11
2018-04-14T00:50:01.182Z,972.10
2018-04-14T00:51:01.852Z,972.13
2018-04-14T00:52:02.511Z,972.12
2018-04-14T00:53:03.181Z,972.10
2018-04-14T00:54:03.845Z,972.07
2018-04-14T00:55:04.518Z,972.08
2018-04-14T00:56:05.180Z,972.12
2018-04-14T00:57:05.848Z,972.12
2018-04-14T00:58:06.513Z,972.10
2018-04-14T00:59:07.181Z,972.07
2018-04-14T01:00:07.845Z,972.06
2018-04-14T01:01:08.516Z,972.06
2018-04-14T01:02:09.192Z,972.03
2018-04-14T01:03:09.857Z,972.07
2018-04-14T01:04:10.525Z,972.05
2018-04-14T01:05:11.193Z,972.05
2018-04-14T01:06:11.860Z,972.03
2018-04-14T01:07:12.524Z,972.01
2018-04-14T01:08:13.194Z,972.02
2018-04-14T01:09:13.857Z,972.02
2018-04-14T01:10:14.528Z,972.06
2018-04-14T01:11:15.191Z,972.01
2018-04-14T01:12:15.858Z,972.04
2018-04-14T01:13:16.524Z,972.00
2018-04-14T01:14:17.195Z,971.98
2018-04-14T01:15:17.859Z,972.02
2018-04-14T01:16:18.534Z,972.04
2018-04-14T01:17:19.197Z,972.02
2018-04-14T01:18:19.865Z,972.06
2018-04-14T01:19:20.539Z,972.04
2018-04-14T01:20:21.205Z,972.07
2018-04-14T01:21:21.874Z,972.02
2018-04-14T01:22:22.546Z,972.03
2018-04-14T01:23:23.212Z,972.04
2018-04-14T01:24:23.882Z,972.08
2018-04-14T01:25:24.553Z,972.01
2018-04-14T01:26:25.222Z,972.08
2018-04-14T01:27:25.888Z,972.08
2018-04-14T01:28:26.556Z,972.09
2018-04-14T01:29:27.225Z,972.05
2018-04-14T01:30:27.892Z,972.09
2018-04-14T01:31:28.560Z,972.10
2018-04-14T01:32:29.234Z,972.15
2018-04-14T01:33:29.895Z,972.14
2018-04-14T01:34:30.562Z,972.16
2018-04-14T01:35:31.230Z,972.13
2018-04-14T01:36:31.896Z,972.15
2018-04-14T01:37:32.561Z,972.13
2018-04-14T01:38:33.233Z,972.12
2018-04-14T01:39:33.892Z,972.16
2018-04-14T01:40:34.562Z,972.21
2018-04-14T01:41:35.228Z,972.14
2018-04-14T01:42:35.896Z,972.20
2018-04-14T01:43:36.571Z,972.20
2018-04-14T01:44:37.234Z,972.20
2018-04-14T01:45:37.902Z,972.20
2018-04-14T01:46:38.575Z,972.23
2018-04-14T01:47:39.245Z,972.20
2018-04-14T01:48:39.909Z,972.22
2018-04-14T01:49:40.576Z,972.21
2018-04-14T01:50:41.243Z,972.19
2018-04-14T01:51:41.909Z,972.24
2018-04-14T01:52:42.574Z,972.28
2018-04-14T01:53:43.239Z,972.26
2018-04-14T01:54:43.905Z,972.35
2018-04-14T01:55:44.573Z,972.34
2018-04-14T01:56:45.243Z,972.36
2018-04-14T01:57:45.908Z,972.31
2018-04-14T01:58:46.578Z,972.31
2018-04-14T01:59:47.245Z,972.25
2018-04-14T02:00:47.913Z,972.27
2018-04-14T02:01:48.583Z,972.26
2018-04-14T02:02:49.255Z,972.26
2018-04-14T02:03:49.919Z,972.27
2018-04-14T02:04:50.590Z,972.22
2018-04-14T02:05:51.254Z,972.19
2018-04-14T02:06:51.921Z,972.20
2018-04-14T02:07:52.588Z,972.18
2018-04-14T02:08:53.257Z,972.21
2018-04-14T02:09:53.924Z,972.20
2018-04-14T02:10:54.593Z,972.17
2018-04-14T02:11:55.255Z,972.20
2018-04-14T02:12:55.924Z,972.18
2018-04-14T02:13:56.599Z,972.21
2018-04-14T02:14:57.267Z,972.20
2018-04-14T02:15:57.933Z,972.20
2018-04-14T02:16:58.602Z,972.20
2018-04-14T02:17:59.267Z,972.21
2018-04-14T02:18:59.937Z,972.23
2018-04-14T02:20:00.606Z,972.23
2018-04-14T02:21:01.271Z,972.25
2018-04-14T02:22:01.935Z,972.23
2018-04-14T02:23:02.599Z,972.22
2018-04-14T02:24:03.265Z,972.22
2018-04-14T02:25:03.932Z,972.24
2018-04-14T02:26:04.599Z,972.24
2018-04-14T02:27:05.268Z,972.31
2018-04-14T02:28:05.932Z,972.26
2018-04-14T02:29:06.594Z,972.30
2018-04-14T02:30:07.261Z,972.28
2018-04-14T02:31:07.930Z,972.27
2018-04-14T02:32:08.599Z,972.29
2018-04-14T02:33:09.266Z,972.30
2018-04-14T02:34:09.933Z,972.28
2018-04-14T02:35:10.605Z,972.27
2018-04-14T02:36:11.263Z,972.28
2018-04-14T02:37:11.932Z,972.30
2018-04-14T02:38:12.600Z,972.32
2018-04-14T02:39:13.262Z,972.37
2018-04-14T02:40:13.936Z,972.33
2018-04-14T02:41:14.604Z,972.37
2018-04-14T02:42:15.269Z,972.35
2018-04-14T02:43:15.931Z,972.36
2018-04-14T02:44:16.595Z,972.36
2018-04-14T02:45:17.261Z,972.34
2018-04-14T02:46:17.929Z,972.34
2018-04-14T02:47:18.593Z,972.36
2018-04-14T02:48:19.261Z,972.41
2018-04-14T02:49:19.927Z,972.39
2018-04-14T02:50:20.594Z,972.40
2018-04-14T02:51:21.258Z,972.42
2018-04-14T02:52:21.925Z,972.44
2018-04-14T02:53:22.589Z,972.43
2018-04-14T02:54:23.256Z,972.45
2018-04-14T02:55:23.918Z,972.43
2018-04-14T02:56:24.581Z,972.41
2018-04-14T02:57:25.248Z,972.40
2018-04-14T02:58:25.921Z,972.38
2018-04-14T02:59:26.595Z,972.40
2018-04-14T03:00:27.259Z,972.38
2018-04-14T03:01:27.921Z,972.34
2018-04-14T03:02:28.590Z,972.35
2018-04-14T03:03:29.252Z,972.35
2018-04-14T03:04:29.928Z,972.35
2018-04-14T03:05:30.602Z,972.37
2018-04-14T03:06:31.263Z,972.37
2018-04-14T03:07:31.936Z,972.34
2018-04-14T03:08:32.610Z,972.41
2018-04-14T03:09:33.278Z,972.36
2018-04-14T03:10:33.941Z,972.39
2018-04-14T03:11:34.608Z,972.40
2018-04-14T03:12:35.271Z,972.48
2018-04-14T03:13:35.938Z,972.45
2018-04-14T03:14:36.603Z,972.46
2018-04-14T03:15:37.268Z,972.47
2018-04-14T03:16:37.943Z,972.47
2018-04-14T03:17:38.609Z,972.50
2018-04-14T03:18:39.273Z,972.53
2018-04-14T03:19:39.940Z,972.51
2018-04-14T03:20:40.610Z,972.52
2018-04-14T03:21:41.273Z,972.50
2018-04-14T03:22:41.938Z,972.52
2018-04-14T03:23:42.603Z,972.53
2018-04-14T03:24:43.269Z,972.48
2018-04-14T03:25:43.930Z,972.50
2018-04-14T03:26:44.606Z,972.47
2018-04-14T03:27:45.270Z,972.49
2018-04-14T03:28:45.938Z,972.49
2018-04-14T03:29:46.609Z,972.50
2018-04-14T03:30:47.283Z,972.55
2018-04-14T03:31:47.953Z,972.56
2018-04-14T03:32:48.629Z,972.60
2018-04-14T03:33:49.291Z,972.58
2018-04-14T03:34:49.959Z,972.60
2018-04-14T03:35:50.625Z,972.52
2018-04-14T03:36:51.291Z,972.55
2018-04-14T03:37:51.959Z,972.55
2018-04-14T03:38:52.632Z,972.52
2018-04-14T03:39:53.304Z,972.50
2018-04-14T03:40:53.971Z,972.51
2018-04-14T03:41:54.635Z,972.49
2018-04-14T03:42:55.303Z,972.48
2018-04-14T03:43:55.972Z,972.50
2018-04-14T03:44:56.633Z,972.53
2018-04-14T03:45:57.311Z,972.52
2018-04-14T03:46:57.977Z,972.51
2018-04-14T03:47:58.643Z,972.50
2018-04-14T03:48:59.308Z,972.52
2018-04-14T03:49:59.977Z,972.55
2018-04-14T03:51:00.642Z,972.55
2018-04-14T03:52:01.306Z,972.57
2018-04-14T03:53:01.973Z,972.58
2018-04-14T03:54:02.643Z,972.60
2018-04-14T03:55:03.310Z,972.61
2018-04-14T03:56:03.980Z,972.56
2018-04-14T03:57:04.644Z,972.53
2018-04-14T03:58:05.307Z,972.58
2018-04-14T03:59:05.983Z,972.62
2018-04-14T04:00:06.659Z,972.62
2018-04-14T04:01:07.328Z,972.64
2018-04-14T04:02:07.994Z,972.67
2018-04-14T04:03:08.664Z,972.67
2018-04-14T04:04:09.329Z,972.63
2018-04-14T04:05:09.998Z,972.66
2018-04-14T04:06:10.666Z,972.67
2018-04-14T04:07:11.330Z,972.67
2018-04-14T04:08:11.996Z,972.68
2018-04-14T04:09:12.663Z,972.69
2018-04-14T04:10:13.326Z,972.69
2018-04-14T04:11:13.991Z,972.72
2018-04-14T04:12:14.659Z,972.72
2018-04-14T04:13:15.327Z,972.73
2018-04-14T04:14:15.989Z,972.75
2018-04-14T04:15:16.658Z,972.80
2018-04-14T04:16:17.320Z,972.86
2018-04-14T04:17:17.992Z,972.87
2018-04-14T04:18:18.663Z,972.88
2018-04-14T04:19:19.329Z,972.90
2018-04-14T04:20:19.998Z,972.92
2018-04-14T04:21:20.664Z,972.93
2018-04-14T04:22:21.331Z,972.93
2018-04-14T04:23:21.996Z,972.92
2018-04-14T04:24:22.663Z,972.95
2018-04-14T04:25:23.331Z,973.02
2018-04-14T04:26:23.999Z,973.00
2018-04-14T04:27:24.661Z,972.98
2018-04-14T04:28:25.337Z,973.01
2018-04-14T04:29:25.998Z,973.09
2018-04-14T04:30:26.665Z,973.03
2018-04-14T04:31:27.330Z,973.07
2018-04-14T04:32:27.996Z,973.04
2018-04-14T04:33:28.663Z,973.08
2018-04-14T04:34:29.330Z,973.08
2018-04-14T04:35:29.996Z,973.14
2018-04-14T04:36:30.663Z,973.11
2018-04-14T04:37:31.334Z,973.16
2018-04-14T04:38:32.005Z,973.14
2018-04-14T04:39:32.669Z,973.19
2018-04-14T04:40:33.341Z,973.15
2018-04-14T04:41:34.009Z,973.19
2018-04-14T04:42:34.676Z,973.18
2018-04-14T04:43:35.344Z,973.24
2018-04-14T04:44:36.015Z,973.27
2018-04-14T04:45:36.686Z,973.23
2018-04-14T04:46:37.360Z,973.22
2018-04-14T04:47:38.033Z,973.27
2018-04-14T04:48:38.701Z,973.25
2018-04-14T04:49:39.373Z,973.28
2018-04-14T04:50:40.040Z,973.27
2018-04-14T04:51:40.709Z,973.31
2018-04-14T04:52:41.381Z,973.31
2018-04-14T04:53:42.048Z,973.27
2018-04-14T04:54:42.716Z,973.33
2018-04-14T04:55:43.387Z,973.32
2018-04-14T04:56:44.057Z,973.32
2018-04-14T04:57:44.731Z,973.33
2018-04-14T04:58:45.401Z,973.34
2018-04-14T04:59:46.080Z,973.36
2018-04-14T05:00:46.747Z,973.37
2018-04-14T05:01:47.416Z,973.44
2018-04-14T05:02:48.086Z,973.45
2018-04-14T05:03:48.757Z,973.47
2018-04-14T05:04:49.427Z,973.45
2018-04-14T05:05:50.096Z,973.45
2018-04-14T05:06:50.767Z,973.50
2018-04-14T05:07:51.437Z,973.48
2018-04-14T05:08:52.108Z,973.50
2018-04-14T05:09:52.778Z,973.56
2018-04-14T05:10:53.449Z,973.62
2018-04-14T05:11:54.117Z,973.61
2018-04-14T05:12:54.784Z,973.64
2018-04-14T05:13:55.456Z,973.66
2018-04-14T05:14:56.123Z,973.68
2018-04-14T05:15:56.793Z,973.72
2018-04-14T05:16:57.461Z,973.75
2018-04-14T05:17:58.133Z,973.72
2018-04-14T05:18:58.801Z,973.72
2018-04-14T05:19:59.472Z,973.75
2018-04-14T05:21:00.145Z,973.76
2018-04-14T05:22:00.816Z,973.79
2018-04-14T05:23:01.487Z,973.76
2018-04-14T05:24:02.155Z,973.84
2018-04-14T05:25:02.824Z,973.77
2018-04-14T05:26:03.495Z,973.77
2018-04-14T05:27:04.168Z,973.79
2018-04-14T05:28:04.839Z,973.77
2018-04-14T05:29:05.506Z,973.79
2018-04-14T05:30:06.177Z,973.84
2018-04-14T05:31:06.844Z,973.87
2018-04-14T05:32:07.516Z,973.82
2018-04-14T05:33:08.195Z,973.84
2018-04-14T05:34:08.864Z,973.84
2018-04-14T05:35:09.538Z,973.86
2018-04-14T05:36:10.208Z,973.86
2018-04-14T05:37:10.876Z,973.89
2018-04-14T05:38:11.550Z,973.92
2018-04-14T05:39:12.222Z,973.92
2018-04-14T05:40:12.903Z,973.91
2018-04-14T05:41:13.573Z,973.91
2018-04-14T05:42:14.251Z,973.91
2018-04-14T05:43:14.919Z,973.93
2018-04-14T05:44:15.590Z,973.87
2018-04-14T05:45:16.262Z,973.88
2018-04-14T05:46:16.951Z,973.87
2018-04-14T05:47:17.622Z,973.85
2018-04-14T05:48:18.294Z,973.89
2018-04-14T05:49:18.964Z,973.90
2018-04-14T05:50:19.633Z,973.90
2018-04-14T05:51:20.302Z,973.93
2018-04-14T05:52:20.974Z,973.97
2018-04-14T05:53:21.647Z,973.98
2018-04-14T05:54:22.323Z,974.00
2018-04-14T05:55:22.993Z,974.02
2018-04-14T05:56:23.664Z,974.00
2018-04-14T05:57:24.334Z,974.00
2018-04-14T05:58:25.009Z,974.01
2018-04-14T05:59:25.705Z,973.99
2018-04-14T06:00:26.351Z,974.00
2018-04-14T06:01:27.032Z,973.98
2018-04-14T06:02:27.704Z,973.97
2018-04-14T06:03:28.371Z,973.96
2018-04-14T06:04:29.043Z,974.01
2018-04-14T06:05:29.718Z,974.04
2018-04-14T06:06:30.391Z,974.03
2018-04-14T06:07:31.061Z,974.00
2018-04-14T06:08:31.741Z,973.98
2018-04-14T06:09:32.411Z,974.03
2018-04-14T06:10:33.080Z,974.04
2018-04-14T06:11:33.754Z,974.10
2018-04-14T06:12:34.425Z,974.06
2018-04-14T06:13:35.096Z,974.06
2018-04-14T06:14:35.768Z,974.07
2018-04-14T06:15:36.451Z,974.07
2018-04-14T06:16:37.121Z,974.07
2018-04-14T06:17:37.793Z,974.07
2018-04-14T06:18:38.485Z,974.07
2018-04-14T06:19:39.156Z,974.11
2018-04-14T06:20:39.830Z,974.10
2018-04-14T06:21:40.501Z,974.14
2018-04-14T06:22:41.180Z,974.16
2018-04-14T06:23:41.851Z,974.14
2018-04-14T06:24:42.522Z,974.12
2018-04-14T06:25:43.194Z,974.15
2018-04-14T06:26:43.905Z,974.18
2018-04-14T06:27:44.543Z,974.20
2018-04-14T06:28:45.214Z,974.21
2018-04-14T06:29:45.892Z,974.20
2018-04-14T06:30:46.561Z,974.22
2018-04-14T06:31:47.231Z,974.28
2018-04-14T06:32:47.900Z,974.25
2018-04-14T06:33:48.608Z,974.30
2018-04-14T06:34:49.256Z,974.33
2018-04-14T06:35:49.928Z,974.34
2018-04-14T06:36:50.611Z,974.38
2018-04-14T06:37:51.285Z,974.40
2018-04-14T06:38:51.958Z,974.41
2018-04-14T06:39:52.634Z,974.41
2018-04-14T06:40:53.308Z,974.46
2018-04-14T06:41:53.980Z,974.45
2018-04-14T06:42:54.650Z,974.45
2018-04-14T06:43:55.323Z,974.45
2018-04-14T06:44:55.996Z,974.48
2018-04-14T06:45:56.668Z,974.45
2018-04-14T06:46:57.345Z,974.50
2018-04-14T06:47:58.017Z,974.46
2018-04-14T06:48:58.694Z,974.46
2018-04-14T06:49:59.367Z,974.47
2018-04-14T06:51:00.048Z,974.48
2018-04-14T06:52:00.721Z,974.49
2018-04-14T06:53:01.442Z,974.49
2018-04-14T06:54:02.065Z,974.47
2018-04-14T06:55:02.737Z,974.44
2018-04-14T06:56:03.419Z,974.48
2018-04-14T06:57:04.092Z,974.47
2018-04-14T06:58:04.764Z,974.49
2018-04-14T06:59:05.437Z,974.45
2018-04-14T07:00:06.111Z,974.50
2018-04-14T07:01:06.788Z,974.49
2018-04-14T07:02:07.464Z,974.49
2018-04-14T07:03:08.135Z,974.50
2018-04-14T07:04:08.808Z,974.51
2018-04-14T07:05:09.482Z,974.49
2018-04-14T07:06:10.151Z,974.49
2018-04-14T07:07:10.820Z,974.52
2018-04-14T07:08:11.502Z,974.50
2018-04-14T07:09:12.177Z,974.52
2018-04-14T07:10:12.854Z,974.52
2018-04-14T07:11:13.527Z,974.59
2018-04-14T07:12:14.196Z,974.57
2018-04-14T07:13:14.923Z,974.56
2018-04-14T07:14:15.607Z,974.56
2018-04-14T07:15:16.278Z,974.56
2018-04-14T07:16:16.958Z,974.53
2018-04-14T07:17:17.627Z,974.53
2018-04-14T07:18:18.300Z,974.56
2018-04-14T07:19:18.980Z,974.59
2018-04-14T07:20:19.652Z,974.57
2018-04-14T07:21:20.324Z,974.57
2018-04-14T07:22:20.996Z,974.61
2018-04-14T07:23:21.675Z,974.66
2018-04-14T07:24:22.353Z,974.69
2018-04-14T07:25:23.025Z,974.67
2018-04-14T07:26:23.699Z,974.68
2018-04-14T07:27:24.365Z,974.69
2018-04-14T07:28:25.048Z,974.67
2018-04-14T07:29:25.720Z,974.64
2018-04-14T07:30:26.406Z,974.68
2018-04-14T07:31:27.075Z,974.66
2018-04-14T07:32:27.804Z,974.68
2018-04-14T07:33:28.422Z,974.67
2018-04-14T07:34:29.095Z,974.67
2018-04-14T07:35:29.779Z,974.70
2018-04-14T07:36:30.454Z,974.69
2018-04-14T07:37:31.127Z,974.69
2018-04-14T07:38:31.796Z,974.71
2018-04-14T07:39:32.468Z,974.75
2018-04-14T07:40:33.141Z,974.73
2018-04-14T07:41:33.813Z,974.76
2018-04-14T07:42:34.487Z,974.79
2018-04-14T07:43:35.163Z,974.80
2018-04-14T07:44:35.845Z,974.74
2018-04-14T07:45:36.518Z,974.82
2018-04-14T07:46:37.197Z,974.76
2018-04-14T07:47:37.863Z,974.85
2018-04-14T07:48:38.537Z,974.82
2018-04-14T07:49:39.213Z,974.80
2018-04-14T07:50:39.883Z,974.85
2018-04-14T07:51:40.559Z,974.83
2018-04-14T07:52:41.234Z,974.77
2018-04-14T07:53:41.906Z,974.79
2018-04-14T07:54:42.578Z,974.78
2018-04-14T07:55:43.252Z,974.85
2018-04-14T07:56:43.933Z,974.84
2018-04-14T07:57:44.655Z,974.86
2018-04-14T07:58:45.278Z,974.84
2018-04-14T07:59:45.949Z,974.84
2018-04-14T08:00:46.628Z,974.82
2018-04-14T08:01:47.301Z,974.88
2018-04-14T08:02:47.974Z,974.92
2018-04-14T08:03:48.647Z,974.90
2018-04-14T08:04:49.321Z,974.89
2018-04-14T08:05:49.996Z,974.89
2018-04-14T08:06:50.666Z,974.93
2018-04-14T08:07:51.336Z,974.95
2018-04-14T08:08:52.008Z,974.94
2018-04-14T08:09:52.692Z,974.94
2018-04-14T08:10:53.368Z,974.98
2018-04-14T08:11:54.043Z,974.93
2018-04-14T08:12:54.718Z,974.94
2018-04-14T08:13:55.391Z,974.98
2018-04-14T08:14:56.069Z,974.97
2018-04-14T08:15:56.738Z,974.90
2018-04-14T08:16:57.413Z,974.89
2018-04-14T08:17:58.086Z,974.92
2018-04-14T08:18:58.678Z,974.91
2018-04-14T08:19:59.427Z,974.90
2018-04-14T08:21:00.110Z,974.93
2018-04-14T08:22:00.782Z,974.92
2018-04-14T08:23:01.458Z,974.94
2018-04-14T08:24:02.134Z,974.96
2018-04-14T08:25:02.812Z,974.94
2018-04-14T08:26:03.490Z,974.93
2018-04-14T08:27:04.164Z,974.96
2018-04-14T08:28:04.838Z,974.94
2018-04-14T08:29:05.513Z,974.96
2018-04-14T08:30:06.200Z,974.97
2018-04-14T08:31:06.864Z,974.95
2018-04-14T08:32:07.545Z,975.00
2018-04-14T08:33:08.223Z,974.95
2018-04-14T08:34:08.898Z,974.95
2018-04-14T08:35:09.569Z,975.05
2018-04-14T08:36:10.245Z,974.99
2018-04-14T08:37:10.918Z,974.99
2018-04-14T08:38:11.594Z,974.99
2018-04-14T08:39:12.269Z,975.01
2018-04-14T08:40:12.943Z,975.03
2018-04-14T08:41:13.629Z,975.02
2018-04-14T08:42:14.307Z,975.06
2018-04-14T08:43:14.980Z,974.99
2018-04-14T08:44:15.654Z,975.03
2018-04-14T08:45:16.332Z,975.03
2018-04-14T08:46:17.002Z,975.00
2018-04-14T08:47:17.693Z,975.06
2018-04-14T08:48:18.361Z,975.07
2018-04-14T08:49:19.041Z,975.03
2018-04-14T08:50:19.780Z,975.01
2018-04-14T08:51:20.404Z,975.02
2018-04-14T08:52:21.083Z,975.01
2018-04-14T08:53:21.768Z,975.01
2018-04-14T08:54:22.455Z,975.03
2018-04-14T08:55:23.125Z,975.04
2018-04-14T08:56:23.842Z,975.04
2018-04-14T08:57:24.471Z,975.03
2018-04-14T08:58:25.147Z,975.03
2018-04-14T08:59:25.826Z,974.99
2018-04-14T09:00:26.496Z,974.96
2018-04-14T09:01:27.168Z,974.99
2018-04-14T09:02:27.844Z,975.00
2018-04-14T09:03:28.512Z,974.99
2018-04-14T09:04:29.205Z,974.99
2018-04-14T09:05:29.874Z,975.00
2018-04-14T09:06:30.565Z,974.94
2018-04-14T09:07:31.239Z,974.97
2018-04-14T09:08:31.917Z,974.91
2018-04-14T09:09:32.592Z,974.95
2018-04-14T09:10:33.272Z,974.94
2018-04-14T09:11:33.947Z,974.94
2018-04-14T09:12:34.625Z,974.93
2018-04-14T09:13:35.309Z,974.90
2018-04-14T09:14:35.982Z,974.92
2018-04-14T09:15:36.665Z,974.96
2018-04-14T09:16:37.338Z,974.91
2018-04-14T09:17:38.017Z,974.97
2018-04-14T09:18:38.699Z,974.95
2018-04-14T09:19:39.371Z,974.93
2018-04-14T09:20:40.049Z,974.93
2018-04-14T09:21:40.727Z,974.99
2018-04-14T09:22:41.399Z,974.96
2018-04-14T09:23:42.077Z,974.95
2018-04-14T09:24:42.758Z,974.94
2018-04-14T09:25:43.451Z,974.93
2018-04-14T09:26:44.125Z,974.97
2018-04-14T09:27:44.804Z,974.94
2018-04-14T09:28:45.485Z,974.93
2018-04-14T09:29:46.162Z,974.93
2018-04-14T09:30:46.840Z,974.92
2018-04-14T09:31:47.522Z,974.92
2018-04-14T09:32:48.205Z,974.90
2018-04-14T09:33:48.880Z,974.92
2018-04-14T09:34:49.558Z,974.94
2018-04-14T09:35:50.234Z,974.90
2018-04-14T09:36:50.912Z,974.90
2018-04-14T09:37:51.595Z,974.87
2018-04-14T09:38:52.276Z,974.84
2018-04-14T09:39:52.954Z,974.85
2018-04-14T09:40:53.636Z,974.81
2018-04-14T09:41:54.309Z,974.85
2018-04-14T09:42:55.040Z,974.85
2018-04-14T09:43:55.659Z,974.81
2018-04-14T09:44:56.339Z,974.83
2018-04-14T09:45:57.015Z,974.82
2018-04-14T09:46:57.692Z,974.81
2018-04-14T09:47:58.368Z,974.80
2018-04-14T09:48:59.046Z,974.78
2018-04-14T09:49:59.723Z,974.75
2018-04-14T09:51:00.399Z,974.74
2018-04-14T09:52:01.078Z,974.80
2018-04-14T09:53:01.758Z,974.76
2018-04-14T09:54:02.428Z,974.71
2018-04-14T09:55:03.109Z,974.71
2018-04-14T09:56:03.783Z,974.72
2018-04-14T09:57:04.461Z,974.67
2018-04-14T09:58:05.139Z,974.70
2018-04-14T09:59:05.816Z,974.68
2018-04-14T10:00:06.494Z,974.70
2018-04-14T10:01:07.168Z,974.67
2018-04-14T10:02:07.850Z,974.68
2018-04-14T10:03:08.525Z,974.67
2018-04-14T10:04:09.200Z,974.70
2018-04-14T10:05:09.879Z,974.68
2018-04-14T10:06:10.555Z,974.66
2018-04-14T10:07:11.235Z,974.62
2018-04-14T10:08:11.913Z,974.65
2018-04-14T10:09:12.593Z,974.68
2018-04-14T10:10:13.274Z,974.63
2018-04-14T10:11:13.951Z,974.63
2018-04-14T10:12:14.631Z,974.63
2018-04-14T10:13:15.305Z,974.64
2018-04-14T10:14:15.985Z,974.63
2018-04-14T10:15:16.663Z,974.65
2018-04-14T10:16:17.347Z,974.61
2018-04-14T10:17:18.015Z,974.62
2018-04-14T10:18:18.694Z,974.66
2018-04-14T10:19:19.383Z,974.58
2018-04-14T10:20:20.061Z,974.60
2018-04-14T10:21:20.738Z,974.60
2018-04-14T10:22:21.413Z,974.60
2018-04-14T10:23:22.092Z,974.60
2018-04-14T10:24:22.768Z,974.55
2018-04-14T10:25:23.454Z,974.53
2018-04-14T10:26:24.191Z,974.53
2018-04-14T10:27:24.868Z,974.52
2018-04-14T10:28:25.546Z,974.50
2018-04-14T10:29:26.225Z,974.51
2018-04-14T10:30:26.901Z,974.50
2018-04-14T10:31:27.584Z,974.47
2018-04-14T10:32:28.277Z,974.43
2018-04-14T10:33:28.949Z,974.42
2018-04-14T10:34:29.644Z,974.44
2018-04-14T10:35:30.315Z,974.40
2018-04-14T10:36:30.997Z,974.39
2018-04-14T10:37:31.677Z,974.40
2018-04-14T10:38:32.353Z,974.46
2018-04-14T10:39:33.029Z,974.35
2018-04-14T10:40:33.708Z,974.36
2018-04-14T10:41:34.387Z,974.36
2018-04-14T10:42:35.069Z,974.33
2018-04-14T10:43:35.753Z,974.26
2018-04-14T10:44:36.438Z,974.28
2018-04-14T10:45:37.136Z,974.27
2018-04-14T10:46:37.810Z,974.27
2018-04-14T10:47:38.492Z,974.27
2018-04-14T10:48:39.170Z,974.25
2018-04-14T10:49:39.847Z,974.26
2018-04-14T10:50:40.524Z,974.26
2018-04-14T10:51:41.207Z,974.24
2018-04-14T10:52:41.887Z,974.19
2018-04-14T10:53:42.569Z,974.20
2018-04-14T10:54:43.251Z,974.20
2018-04-14T10:55:43.953Z,974.15
2018-04-14T10:56:44.615Z,974.19
2018-04-14T10:57:45.292Z,974.21
2018-04-14T10:58:45.976Z,974.18
2018-04-14T10:59:46.658Z,974.16
2018-04-14T11:00:47.335Z,974.17
2018-04-14T11:01:48.016Z,974.17
2018-04-14T11:02:48.700Z,974.18
2018-04-14T11:03:49.391Z,974.14
2018-04-14T11:04:50.056Z,974.14
2018-04-14T11:05:50.742Z,974.14
2018-04-14T11:06:51.420Z,974.15
2018-04-14T11:07:52.099Z,974.18
2018-04-14T11:08:52.779Z,974.16
2018-04-14T11:09:53.455Z,974.15
2018-04-14T11:10:54.134Z,974.11
2018-04-14T11:11:54.809Z,974.10
2018-04-14T11:12:55.486Z,974.10
2018-04-14T11:13:56.169Z,974.10
2018-04-14T11:14:56.851Z,974.07
2018-04-14T11:15:57.532Z,974.03
2018-04-14T11:16:58.215Z,974.01
2018-04-14T11:17:58.894Z,974.01
2018-04-14T11:18:59.590Z,973.99
2018-04-14T11:20:00.268Z,974.02
2018-04-14T11:21:00.948Z,973.99
2018-04-14T11:22:01.625Z,973.98
2018-04-14T11:23:02.305Z,973.97
2018-04-14T11:24:02.987Z,973.98
2018-04-14T11:25:03.670Z,973.98
2018-04-14T11:26:04.345Z,973.96
2018-04-14T11:27:05.027Z,973.92
2018-04-14T11:28:05.705Z,973.97
2018-04-14T11:29:06.381Z,973.96
2018-04-14T11:30:07.068Z,973.96
2018-04-14T11:31:07.747Z,973.95
2018-04-14T11:32:08.439Z,973.95
2018-04-14T11:33:09.128Z,973.98
2018-04-14T11:34:09.811Z,973.99
2018-04-14T11:35:10.493Z,974.12
2018-04-14T11:36:11.181Z,974.12
2018-04-14T11:37:11.868Z,974.07
2018-04-14T11:38:12.552Z,974.06
2018-04-14T11:39:13.241Z,974.11
2018-04-14T11:40:13.924Z,974.17
2018-04-14T11:41:14.613Z,974.16
2018-04-14T11:42:15.295Z,974.13
2018-04-14T11:43:15.986Z,974.18
2018-04-14T11:44:16.669Z,974.14
2018-04-14T11:45:17.353Z,974.15
2018-04-14T11:46:18.036Z,974.15
2018-04-14T11:47:18.714Z,974.16
2018-04-14T11:48:19.405Z,974.22
2018-04-14T11:49:20.098Z,974.17
2018-04-14T11:50:20.782Z,974.15
2018-04-14T11:51:21.466Z,974.13
2018-04-14T11:52:22.153Z,974.11
2018-04-14T11:53:22.837Z,974.14
2018-04-14T11:54:23.531Z,974.15
2018-04-14T11:55:24.219Z,974.11
2018-04-14T11:56:24.921Z,974.15
2018-04-14T11:57:25.613Z,974.12
2018-04-14T11:58:26.299Z,974.17
2018-04-14T11:59:26.993Z,974.15
2018-04-14T12:00:27.680Z,974.18
2018-04-14T12:01:28.364Z,974.19
2018-04-14T12:02:29.052Z,974.28
2018-04-14T12:03:29.739Z,974.16
2018-04-14T12:04:30.426Z,974.20
2018-04-14T12:05:31.125Z,974.18
2018-04-14T12:06:31.809Z,974.24
2018-04-14T12:07:32.497Z,974.27
2018-04-14T12:08:33.182Z,974.29
2018-04-14T12:09:33.867Z,974.23
2018-04-14T12:10:34.553Z,974.24
2018-04-14T12:11:35.243Z,974.25
2018-04-14T12:12:35.926Z,974.25
2018-04-14T12:13:36.616Z,974.25
2018-04-14T12:14:37.311Z,974.19
2018-04-14T12:15:38.011Z,974.17
2018-04-14T12:16:38.704Z,974.18
2018-04-14T12:17:39.394Z,974.18
2018-04-14T12:18:40.088Z,974.17
2018-04-14T12:19:40.780Z,974.28
2018-04-14T12:20:41.469Z,974.32
2018-04-14T12:21:42.161Z,974.30
2018-04-14T12:22:42.853Z,974.30
2018-04-14T12:23:43.533Z,974.30
2018-04-14T12:24:44.219Z,974.31
2018-04-14T12:25:44.905Z,974.29
2018-04-14T12:26:45.612Z,974.24
2018-04-14T12:27:46.293Z,974.32
2018-04-14T12:28:46.979Z,974.33
2018-04-14T12:29:47.676Z,974.32
2018-04-14T12:30:48.365Z,974.19
2018-04-14T12:31:49.069Z,974.08
2018-04-14T12:32:49.769Z,974.26
2018-04-14T12:33:50.457Z,974.30
2018-04-14T12:34:51.146Z,974.30
2018-04-14T12:35:51.836Z,974.33
2018-04-14T12:36:52.527Z,974.32